createdAt,value
2022-09-28T00:00:13.348Z,0.00
2022-09-28T00:01:13.261Z,0.00
2022-09-28T00:02:13.349Z,0.00
2022-09-28T00:03:13.323Z,0.00
2022-09-28T00:04:13.287Z,0.00
2022-09-28T00:05:13.226Z,0.00
2022-09-28T00:06:13.216Z,0.00
2022-09-28T00:07:13.210Z,0.00
2022-09-28T00:08:13.178Z,0.00
2022-09-28T00:09:13.308Z,0.00
2022-09-28T00:10:13.177Z,0.00
2022-09-28T00:11:13.156Z,0.00
2022-09-28T00:12:13.165Z,0.00
2022-09-28T00:13:13.158Z,0.00
2022-09-28T00:14:13.181Z,0.00
2022-09-28T00:15:13.108Z,0.00
2022-09-28T00:16:13.136Z,0.00
2022-09-28T00:17:13.092Z,0.00
2022-09-28T00:18:13.107Z,0.00
2022-09-28T00:19:13.139Z,0.00
2022-09-28T00:20:13.058Z,0.00
2022-09-28T00:21:13.040Z,0.00
2022-09-28T00:22:13.037Z,0.00
2022-09-28T00:23:13.017Z,0.00
2022-09-28T00:24:13.053Z,0.00
2022-09-28T00:25:13.017Z,0.00
2022-09-28T00:26:12.989Z,0.00
2022-09-28T00:27:12.998Z,0.00
2022-09-28T00:28:12.986Z,0.00
2022-09-28T00:29:13.003Z,0.00
2022-09-28T00:30:12.962Z,0.00
2022-09-28T00:31:13.056Z,0.00
2022-09-28T00:32:12.915Z,0.00
2022-09-28T00:33:12.914Z,0.00
2022-09-28T00:34:12.956Z,0.00
2022-09-28T00:35:12.902Z,0.00
2022-09-28T00:36:12.877Z,0.00
2022-09-28T00:37:12.877Z,0.00
2022-09-28T00:38:12.892Z,0.00
2022-09-28T00:39:12.927Z,0.00
2022-09-28T00:40:12.852Z,0.00
2022-09-28T00:41:12.864Z,0.00
2022-09-28T00:42:12.808Z,0.00
2022-09-28T00:43:12.820Z,0.00
2022-09-28T00:44:12.857Z,0.00
2022-09-28T00:45:12.802Z,0.00
2022-09-28T00:46:12.835Z,0.00
2022-09-28T00:47:12.792Z,0.00
2022-09-28T00:48:12.746Z,0.00
2022-09-28T00:49:12.780Z,0.00
2022-09-28T00:50:12.736Z,0.00
2022-09-28T00:51:12.774Z,0.00
2022-09-28T00:52:12.706Z,0.00
2022-09-28T00:53:12.702Z,0.00
2022-09-28T00:54:12.713Z,0.00
2022-09-28T00:55:12.688Z,0.00
2022-09-28T00:56:12.681Z,0.00
2022-09-28T00:57:12.699Z,0.00
2022-09-28T00:58:12.663Z,0.00
2022-09-28T00:59:12.730Z,0.00
2022-09-28T01:00:12.622Z,0.00
2022-09-28T01:01:12.694Z,0.00
2022-09-28T01:02:12.668Z,0.00
2022-09-28T01:03:12.658Z,0.00
2022-09-28T01:04:12.620Z,0.00
2022-09-28T01:05:12.617Z,0.00
2022-09-28T01:06:12.596Z,0.00
2022-09-28T01:07:12.582Z,0.00
2022-09-28T01:08:12.543Z,0.00
2022-09-28T01:09:12.578Z,0.00
2022-09-28T01:10:12.501Z,0.00
2022-09-28T01:11:12.578Z,0.00
2022-09-28T01:12:12.509Z,0.00
2022-09-28T01:13:12.493Z,0.00
2022-09-28T01:14:12.478Z,0.00
2022-09-28T01:15:12.513Z,0.00
2022-09-28T01:16:12.515Z,0.00
2022-09-28T01:17:12.481Z,0.00
2022-09-28T01:18:12.420Z,0.00
2022-09-28T01:19:12.451Z,0.00
2022-09-28T01:20:12.418Z,0.00
2022-09-28T01:21:12.452Z,0.00
2022-09-28T01:22:12.389Z,0.00
2022-09-28T01:23:12.369Z,0.00
2022-09-28T01:24:12.408Z,0.00
2022-09-28T01:25:12.364Z,0.00
2022-09-28T01:26:12.344Z,0.00
2022-09-28T01:27:12.336Z,0.00
2022-09-28T01:28:12.305Z,0.00
2022-09-28T01:29:12.374Z,0.00
2022-09-28T01:30:12.312Z,0.00
2022-09-28T01:31:12.392Z,0.00
2022-09-28T01:32:12.259Z,0.00
2022-09-28T01:33:12.285Z,0.00
2022-09-28T01:34:12.264Z,0.00
2022-09-28T01:35:12.242Z,0.00
2022-09-28T01:36:12.223Z,0.00
2022-09-28T01:37:12.230Z,0.00
2022-09-28T01:38:12.197Z,0.00
2022-09-28T01:39:12.255Z,0.00
2022-09-28T01:40:12.179Z,0.00
2022-09-28T01:41:12.192Z,0.00
2022-09-28T01:42:12.161Z,0.00
2022-09-28T01:43:12.165Z,0.00
2022-09-28T01:44:12.157Z,0.00
2022-09-28T01:45:12.158Z,0.00
2022-09-28T01:46:12.248Z,0.00
2022-09-28T01:47:12.142Z,0.00
2022-09-28T01:48:12.112Z,0.00
2022-09-28T01:49:12.149Z,0.00
2022-09-28T01:50:12.068Z,0.00
2022-09-28T01:51:12.059Z,0.00
2022-09-28T01:52:12.068Z,0.00
2022-09-28T01:53:12.059Z,0.00
2022-09-28T01:54:12.028Z,0.00
2022-09-28T01:55:12.016Z,0.00
2022-09-28T01:56:12.019Z,0.00
2022-09-28T01:57:12.026Z,0.00
2022-09-28T01:58:11.987Z,0.00
2022-09-28T01:59:12.005Z,0.00
2022-09-28T02:00:11.965Z,0.00
2022-09-28T02:01:12.013Z,0.00
2022-09-28T02:02:11.999Z,0.00
2022-09-28T02:03:11.957Z,0.00
2022-09-28T02:04:11.958Z,0.00
2022-09-28T02:05:11.909Z,0.00
2022-09-28T02:06:11.893Z,0.00
2022-09-28T02:07:11.975Z,0.00
2022-09-28T02:08:11.891Z,0.00
2022-09-28T02:09:11.875Z,0.00
2022-09-28T02:10:11.875Z,0.00
2022-09-28T02:11:11.845Z,0.00
2022-09-28T02:12:11.840Z,0.00
2022-09-28T02:13:11.874Z,0.00
2022-09-28T02:14:11.822Z,0.00
2022-09-28T02:15:11.822Z,0.00
2022-09-28T02:16:11.853Z,0.00
2022-09-28T02:17:11.799Z,0.00
2022-09-28T02:18:11.768Z,0.00
2022-09-28T02:19:11.775Z,0.00
2022-09-28T02:20:11.755Z,0.00
2022-09-28T02:21:11.742Z,0.00
2022-09-28T02:22:11.723Z,0.00
2022-09-28T02:23:11.743Z,0.00
2022-09-28T02:24:11.707Z,0.00
2022-09-28T02:25:11.698Z,0.00
2022-09-28T02:26:11.715Z,0.00
2022-09-28T02:27:11.671Z,0.00
2022-09-28T02:28:11.694Z,0.00
2022-09-28T02:29:11.723Z,0.00
2022-09-28T02:30:11.651Z,0.00
2022-09-28T02:31:11.719Z,0.00
2022-09-28T02:32:11.654Z,0.00
2022-09-28T02:33:11.622Z,0.00
2022-09-28T02:34:11.622Z,0.00
2022-09-28T02:35:11.611Z,0.00
2022-09-28T02:36:11.604Z,0.00
2022-09-28T02:37:11.552Z,0.00
2022-09-28T02:38:11.581Z,0.00
2022-09-28T02:39:11.618Z,0.00
2022-09-28T02:40:11.574Z,0.00
2022-09-28T02:41:11.506Z,0.00
2022-09-28T02:42:11.500Z,0.00
2022-09-28T02:43:11.490Z,0.00
2022-09-28T02:44:11.513Z,0.00
2022-09-28T02:45:11.489Z,0.00
2022-09-28T02:46:11.549Z,0.00
2022-09-28T02:47:11.443Z,0.00
2022-09-28T02:48:11.442Z,0.00
2022-09-28T02:49:21.276Z,0.00
2022-09-28T02:50:12.456Z,0.00
2022-09-28T02:51:11.396Z,0.00
2022-09-28T02:52:11.404Z,0.00
2022-09-28T02:53:11.391Z,0.00
2022-09-28T02:54:13.445Z,0.00
2022-09-28T02:55:12.378Z,0.00
2022-09-28T02:56:11.876Z,0.00
2022-09-28T02:57:11.336Z,0.00
2022-09-28T02:58:11.331Z,0.00
2022-09-28T02:59:11.337Z,0.00
2022-09-28T03:00:11.372Z,0.00
2022-09-28T03:01:11.362Z,0.00
2022-09-28T03:02:11.316Z,0.00
2022-09-28T03:03:11.281Z,0.00
2022-09-28T03:04:11.336Z,0.00
2022-09-28T03:05:11.278Z,0.00
2022-09-28T03:06:11.258Z,0.00
2022-09-28T03:07:11.253Z,0.00
2022-09-28T03:08:11.259Z,0.00
2022-09-28T03:09:11.234Z,0.00
2022-09-28T03:10:11.247Z,0.00
2022-09-28T03:11:11.185Z,0.00
2022-09-28T03:12:11.184Z,0.00
2022-09-28T03:13:11.190Z,0.00
2022-09-28T03:14:11.191Z,0.00
2022-09-28T03:15:11.167Z,0.00
2022-09-28T03:16:11.215Z,0.00
2022-09-28T03:17:11.136Z,0.00
2022-09-28T03:18:11.169Z,0.00
2022-09-28T03:19:11.094Z,0.00
2022-09-28T03:20:11.101Z,0.00
2022-09-28T03:21:11.096Z,0.00
2022-09-28T03:22:11.126Z,0.00
2022-09-28T03:23:26.374Z,0.00
2022-09-28T03:24:12.091Z,0.00
2022-09-28T03:25:11.032Z,0.00
2022-09-28T03:26:11.052Z,0.00
2022-09-28T03:27:11.009Z,0.00
2022-09-28T03:28:11.081Z,0.00
2022-09-28T03:29:11.057Z,0.00
2022-09-28T03:30:10.984Z,0.00
2022-09-28T03:31:11.041Z,0.00
2022-09-28T03:32:10.972Z,0.00
2022-09-28T03:33:10.986Z,0.00
2022-09-28T03:34:10.961Z,0.00
2022-09-28T03:35:10.923Z,0.00
2022-09-28T03:36:10.970Z,0.00
2022-09-28T03:37:10.925Z,0.00
2022-09-28T03:38:10.907Z,0.00
2022-09-28T03:39:11.057Z,0.00
2022-09-28T03:40:10.891Z,0.00
2022-09-28T03:41:10.854Z,0.00
2022-09-28T03:42:10.870Z,0.00
2022-09-28T03:43:10.907Z,0.00
2022-09-28T03:44:10.853Z,0.00
2022-09-28T03:45:10.825Z,0.00
2022-09-28T03:46:10.853Z,0.00
2022-09-28T03:47:10.829Z,0.00
2022-09-28T03:48:10.807Z,0.00
2022-09-28T03:49:10.920Z,0.00
2022-09-28T03:50:10.853Z,0.00
2022-09-28T03:51:10.749Z,0.00
2022-09-28T03:52:10.750Z,0.00
2022-09-28T03:53:10.768Z,0.00
2022-09-28T03:54:10.787Z,0.00
2022-09-28T03:55:10.701Z,0.00
2022-09-28T03:56:10.744Z,0.00
2022-09-28T03:57:10.700Z,0.00
2022-09-28T03:58:10.696Z,0.00
2022-09-28T03:59:10.748Z,0.00
2022-09-28T04:00:10.669Z,0.00
2022-09-28T04:01:14.190Z,0.00
2022-09-28T04:02:11.717Z,0.00
2022-09-28T04:03:10.720Z,0.00
2022-09-28T04:04:10.625Z,0.00
2022-09-28T04:05:10.626Z,0.00
2022-09-28T04:06:10.584Z,0.00
2022-09-28T04:07:10.577Z,0.00
2022-09-28T04:08:10.582Z,0.00
2022-09-28T04:09:10.671Z,0.00
2022-09-28T04:10:10.540Z,0.00
2022-09-28T04:11:10.530Z,0.00
2022-09-28T04:12:10.525Z,0.00
2022-09-28T04:13:10.556Z,0.00
2022-09-28T04:14:10.520Z,0.00
2022-09-28T04:15:10.502Z,0.00
2022-09-28T04:16:10.755Z,0.00
2022-09-28T04:17:10.479Z,0.00
2022-09-28T04:18:10.455Z,0.00
2022-09-28T04:19:10.554Z,0.00
2022-09-28T04:20:10.440Z,0.00
2022-09-28T04:21:10.478Z,0.00
2022-09-28T04:22:10.428Z,0.00
2022-09-28T04:23:10.453Z,0.00
2022-09-28T04:24:10.412Z,0.00
2022-09-28T04:25:10.419Z,0.00
2022-09-28T04:26:10.375Z,0.00
2022-09-28T04:27:10.426Z,0.00
2022-09-28T04:28:10.344Z,0.00
2022-09-28T04:29:10.389Z,0.00
2022-09-28T04:30:10.343Z,0.00
2022-09-28T04:31:10.337Z,0.00
2022-09-28T04:32:10.318Z,0.00
2022-09-28T04:33:10.302Z,0.00
2022-09-28T04:34:10.297Z,0.00
2022-09-28T04:35:10.292Z,0.00
2022-09-28T04:36:10.252Z,0.00
2022-09-28T04:37:10.243Z,0.00
2022-09-28T04:38:10.237Z,0.00
2022-09-28T04:39:10.338Z,0.00
2022-09-28T04:40:10.221Z,0.00
2022-09-28T04:41:10.222Z,0.00
2022-09-28T04:42:10.223Z,0.00
2022-09-28T04:43:10.259Z,0.00
2022-09-28T04:44:10.216Z,0.00
2022-09-28T04:45:10.156Z,0.00
2022-09-28T04:46:10.243Z,0.00
2022-09-28T04:47:10.314Z,0.00
2022-09-28T04:48:10.133Z,0.00
2022-09-28T04:49:10.231Z,0.00
2022-09-28T04:50:10.111Z,0.00
2022-09-28T04:51:10.117Z,0.00
2022-09-28T04:52:13.533Z,0.00
2022-09-28T04:53:11.148Z,0.00
2022-09-28T04:54:10.095Z,0.00
2022-09-28T04:55:10.047Z,0.00
2022-09-28T04:56:10.042Z,4.00
2022-09-28T04:57:10.141Z,4.00
2022-09-28T04:58:10.029Z,0.00
2022-09-28T04:59:10.139Z,0.00
2022-09-28T05:00:10.020Z,4.00
2022-09-28T05:01:10.030Z,4.00
2022-09-28T05:02:10.007Z,4.00
2022-09-28T05:03:10.012Z,4.00
2022-09-28T05:04:09.971Z,8.00
2022-09-28T05:05:09.990Z,8.00
2022-09-28T05:06:09.926Z,12.00
2022-09-28T05:07:09.959Z,12.00
2022-09-28T05:08:09.913Z,12.00
2022-09-28T05:09:09.913Z,12.00
2022-09-28T05:10:09.945Z,16.00
2022-09-28T05:11:09.893Z,20.00
2022-09-28T05:12:09.891Z,28.00
2022-09-28T05:13:09.873Z,32.00
2022-09-28T05:14:09.857Z,32.00
2022-09-28T05:15:09.921Z,36.00
2022-09-28T05:16:09.891Z,36.00
2022-09-28T05:17:09.828Z,36.00
2022-09-28T05:18:09.841Z,44.00
2022-09-28T05:19:09.830Z,52.00
2022-09-28T05:20:09.807Z,60.00
2022-09-28T05:21:09.822Z,64.00
2022-09-28T05:22:09.759Z,72.00
2022-09-28T05:23:09.746Z,84.00
2022-09-28T05:24:09.758Z,88.00
2022-09-28T05:25:09.713Z,96.00
2022-09-28T05:26:09.728Z,108.00
2022-09-28T05:27:09.865Z,120.00
2022-09-28T05:28:09.732Z,140.00
2022-09-28T05:29:09.753Z,164.00
2022-09-28T05:30:09.696Z,176.00
2022-09-28T05:31:09.649Z,192.00
2022-09-28T05:32:09.736Z,196.00
2022-09-28T05:33:09.672Z,204.00
2022-09-28T05:34:09.653Z,188.00
2022-09-28T05:35:09.728Z,176.00
2022-09-28T05:36:09.659Z,152.00
2022-09-28T05:37:09.611Z,128.00
2022-09-28T05:38:09.592Z,116.00
2022-09-28T05:39:09.646Z,112.00
2022-09-28T05:40:09.591Z,100.00
2022-09-28T05:41:09.617Z,92.00
2022-09-28T05:42:09.535Z,104.00
2022-09-28T05:43:09.594Z,136.00
2022-09-28T05:44:09.587Z,164.00
2022-09-28T05:45:09.536Z,168.00
2022-09-28T05:46:09.552Z,188.00
2022-09-28T05:47:09.513Z,224.00
2022-09-28T05:48:09.525Z,292.00
2022-09-28T05:49:09.501Z,340.00
2022-09-28T05:50:09.497Z,372.00
2022-09-28T05:51:09.433Z,404.00
2022-09-28T05:52:09.474Z,432.00
2022-09-28T05:53:09.425Z,476.00
2022-09-28T05:54:09.399Z,416.00
2022-09-28T05:55:09.413Z,404.00
2022-09-28T05:56:09.415Z,420.00
2022-09-28T05:57:09.375Z,408.00
2022-09-28T05:58:09.438Z,380.00
2022-09-28T05:59:09.367Z,360.00
2022-09-28T06:00:09.336Z,348.00
2022-09-28T06:01:09.373Z,332.00
2022-09-28T06:02:09.450Z,348.00
2022-09-28T06:03:09.685Z,344.00
2022-09-28T06:04:09.364Z,364.00
2022-09-28T06:05:09.326Z,364.00
2022-09-28T06:06:09.361Z,436.00
2022-09-28T06:07:09.319Z,416.00
2022-09-28T06:08:09.296Z,404.00
2022-09-28T06:09:09.267Z,396.00
2022-09-28T06:10:09.227Z,412.00
2022-09-28T06:11:09.243Z,396.00
2022-09-28T06:12:09.278Z,388.00
2022-09-28T06:13:09.210Z,444.00
2022-09-28T06:14:09.224Z,492.00
2022-09-28T06:15:09.179Z,544.00
2022-09-28T06:16:09.219Z,608.00
2022-09-28T06:17:09.336Z,616.00
2022-09-28T06:18:09.148Z,576.00
2022-09-28T06:19:09.438Z,584.00
2022-09-28T06:20:09.158Z,636.00
2022-09-28T06:21:09.114Z,668.00
2022-09-28T06:22:09.096Z,716.00
2022-09-28T06:23:09.084Z,724.00
2022-09-28T06:24:09.126Z,728.00
2022-09-28T06:25:09.113Z,784.00
2022-09-28T06:26:09.098Z,852.00
2022-09-28T06:27:09.094Z,944.00
2022-09-28T06:28:09.048Z,1076.00
2022-09-28T06:29:09.030Z,1180.00
2022-09-28T06:30:09.013Z,1236.00
2022-09-28T06:31:09.093Z,1300.00
2022-09-28T06:32:09.026Z,1344.00
2022-09-28T06:33:08.999Z,1352.00
2022-09-28T06:34:08.986Z,1344.00
2022-09-28T06:35:08.984Z,1280.00
2022-09-28T06:36:08.940Z,1188.00
2022-09-28T06:37:08.931Z,1136.00
2022-09-28T06:38:08.977Z,1132.00
2022-09-28T06:39:08.906Z,1184.00
2022-09-28T06:40:08.907Z,1240.00
2022-09-28T06:41:08.899Z,1276.00
2022-09-28T06:42:08.876Z,1476.00
2022-09-28T06:43:08.869Z,1660.00
2022-09-28T06:44:08.878Z,1956.00
2022-09-28T06:45:08.864Z,2104.00
2022-09-28T06:46:08.885Z,1956.00
2022-09-28T06:47:08.823Z,1896.00
2022-09-28T06:48:08.821Z,2068.00
2022-09-28T06:49:08.843Z,2312.00
2022-09-28T06:50:08.796Z,2416.00
2022-09-28T06:51:08.837Z,2408.00
2022-09-28T06:52:08.811Z,2356.00
2022-09-28T06:53:08.758Z,2332.00
2022-09-28T06:54:08.741Z,2300.00
2022-09-28T06:55:08.750Z,2352.00
2022-09-28T06:56:08.747Z,2372.00
2022-09-28T06:57:08.732Z,2340.00
2022-09-28T06:58:08.707Z,2332.00
2022-09-28T06:59:08.693Z,2340.00
2022-09-28T07:00:08.678Z,2424.00
2022-09-28T07:01:08.797Z,2544.00
2022-09-28T07:02:08.683Z,2604.00
2022-09-28T07:03:08.648Z,2612.00
2022-09-28T07:04:08.718Z,2624.00
2022-09-28T07:05:08.644Z,2696.00
2022-09-28T07:06:08.712Z,2828.00
2022-09-28T07:07:08.602Z,2972.00
2022-09-28T07:08:08.611Z,3200.00
2022-09-28T07:09:24.216Z,3412.00
2022-09-28T07:10:09.586Z,3532.00
2022-09-28T07:11:08.635Z,3616.00
2022-09-28T07:12:08.544Z,3700.00
2022-09-28T07:13:14.994Z,3740.00
2022-09-28T07:14:13.002Z,3760.00
2022-09-28T07:15:09.519Z,3800.00
2022-09-28T07:16:08.570Z,3908.00
2022-09-28T07:17:13.591Z,4068.00
2022-09-28T07:18:09.578Z,4184.00
2022-09-28T07:19:08.530Z,4140.00
2022-09-28T07:20:18.428Z,3928.00
2022-09-28T07:21:19.215Z,3680.00
2022-09-28T07:22:09.468Z,3608.00
2022-09-28T07:23:18.466Z,3856.00
2022-09-28T07:24:09.449Z,4392.00
2022-09-28T07:25:08.512Z,4852.00
2022-09-28T07:26:09.316Z,5004.00
2022-09-28T07:27:08.413Z,5004.00
2022-09-28T07:28:08.387Z,4904.00
2022-09-28T07:29:08.482Z,4696.00
2022-09-28T07:30:08.390Z,4376.00
2022-09-28T07:31:08.399Z,4020.00
2022-09-28T07:32:08.330Z,3764.00
2022-09-28T07:33:08.327Z,3876.00
2022-09-28T07:34:08.351Z,4324.00
2022-09-28T07:35:08.311Z,4832.00
2022-09-28T07:36:08.440Z,5204.00
2022-09-28T07:37:08.341Z,5404.00
2022-09-28T07:38:08.318Z,5440.00
2022-09-28T07:39:08.295Z,5472.00
2022-09-28T07:40:08.286Z,5496.00
2022-09-28T07:41:08.388Z,5504.00
2022-09-28T07:42:08.260Z,5428.00
2022-09-28T07:43:08.256Z,5256.00
2022-09-28T07:44:08.192Z,5216.00
2022-09-28T07:45:08.228Z,5268.00
2022-09-28T07:46:08.267Z,5240.00
2022-09-28T07:47:08.239Z,5192.00
2022-09-28T07:48:08.166Z,5204.00
2022-09-28T07:49:11.440Z,5340.00
2022-09-28T07:50:08.154Z,5528.00
2022-09-28T07:51:08.154Z,5816.00
2022-09-28T07:52:08.104Z,6308.00
2022-09-28T07:53:08.119Z,6828.00
2022-09-28T07:54:08.106Z,7164.00
2022-09-28T07:55:08.128Z,7532.00
2022-09-28T07:56:08.122Z,7564.00
2022-09-28T07:57:08.102Z,6992.00
2022-09-28T07:58:08.042Z,6176.00
2022-09-28T07:59:08.144Z,5684.00
2022-09-28T08:00:08.025Z,5648.00
2022-09-28T08:01:08.072Z,5964.00
2022-09-28T08:02:08.101Z,6228.00
2022-09-28T08:03:08.015Z,6372.00
2022-09-28T08:04:07.992Z,6512.00
2022-09-28T08:05:07.968Z,6688.00
2022-09-28T08:06:07.965Z,6932.00
2022-09-28T08:07:08.006Z,6936.00
2022-09-28T08:08:08.367Z,6232.00
2022-09-28T08:09:07.999Z,5416.00
2022-09-28T08:10:07.919Z,5092.00
2022-09-28T08:11:07.910Z,5044.00
2022-09-28T08:12:07.893Z,5248.00
2022-09-28T08:13:08.840Z,5764.00
2022-09-28T08:14:07.901Z,6276.00
2022-09-28T08:15:07.906Z,6388.00
2022-09-28T08:16:07.854Z,6044.00
2022-09-28T08:17:07.886Z,5788.00
2022-09-28T08:18:07.870Z,5996.00
2022-09-28T08:19:07.841Z,6632.00
2022-09-28T08:20:07.832Z,7348.00
2022-09-28T08:21:07.792Z,7756.00
2022-09-28T08:22:07.783Z,7912.00
2022-09-28T08:23:07.798Z,8132.00
2022-09-28T08:24:07.852Z,8584.00
2022-09-28T08:25:08.137Z,9052.00
2022-09-28T08:26:11.015Z,9220.00
2022-09-28T08:27:08.752Z,9096.00
2022-09-28T08:28:07.718Z,8920.00
2022-09-28T08:29:07.756Z,8772.00
2022-09-28T08:30:07.714Z,8448.00
2022-09-28T08:31:07.814Z,8092.00
2022-09-28T08:32:07.698Z,7992.00
2022-09-28T08:33:07.699Z,8040.00
2022-09-28T08:34:07.714Z,8136.00
2022-09-28T08:35:08.097Z,8160.00
2022-09-28T08:36:09.181Z,8200.00
2022-09-28T08:37:07.629Z,8088.00
2022-09-28T08:38:07.635Z,7684.00
2022-09-28T08:39:07.600Z,7492.00
2022-09-28T08:40:07.642Z,7696.00
2022-09-28T08:41:07.633Z,8028.00
2022-09-28T08:42:07.572Z,8192.00
2022-09-28T08:43:07.776Z,8204.00
2022-09-28T08:44:08.349Z,8212.00
2022-09-28T08:45:08.591Z,8148.00
2022-09-28T08:46:07.551Z,7968.00
2022-09-28T08:47:07.548Z,7872.00
2022-09-28T08:48:07.516Z,7644.00
2022-09-28T08:49:24.182Z,7080.00
2022-09-28T08:50:08.509Z,6720.00
2022-09-28T08:51:07.520Z,6920.00
2022-09-28T08:52:07.581Z,7220.00
2022-09-28T08:53:07.496Z,7412.00
2022-09-28T08:54:11.023Z,7728.00
2022-09-28T08:55:07.421Z,8184.00
2022-09-28T08:56:07.453Z,8332.00
2022-09-28T08:57:07.425Z,8012.00
2022-09-28T08:58:07.402Z,7368.00
2022-09-28T08:59:07.645Z,6936.00
2022-09-28T09:00:11.012Z,6760.00
2022-09-28T09:01:07.508Z,6464.00
2022-09-28T09:02:07.516Z,6132.00
2022-09-28T09:03:07.547Z,6048.00
2022-09-28T09:04:07.342Z,6308.00
2022-09-28T09:05:07.316Z,6916.00
2022-09-28T09:06:07.330Z,7748.00
2022-09-28T09:07:07.335Z,8744.00
2022-09-28T09:08:07.309Z,9444.00
2022-09-28T09:09:07.326Z,9792.00
